Home > Products > Valid Products > TAF

000
FTUS45 KCYS 220500 RRA
TAFRWL
TAF
KRWL 220549Z 2206/2306 VRB03KT P6SM BKN100
     FM221800 20014G22KT P6SM VCTS SCT060CB BKN100
     FM230300 18007KT P6SM BKN070=



000
FTUS45 KCYS 220500 RRA
TAFCYS
TAF
KCYS 220549Z 2206/2306 25008KT P6SM BKN100
     FM221800 19010KT P6SM VCTS SCT060CB BKN100
     FM230300 21007KT P6SM OVC100=



000
FTUS45 KCYS 220500 RRA
TAFLAR
TAF
KLAR 220549Z 2206/2306 20006KT P6SM BKN100
     FM221800 17010KT P6SM VCTS SCT060CB BKN100
     FM230300 17010KT P6SM OVC100=



000
FTUS45 KCYS 220500 RRA
TAFCYS
TAF
KCYS 220549Z 2206/2306 25008KT P6SM BKN100
     FM221800 19010KT P6SM VCTS SCT060CB BKN100
     FM230300 21007KT P6SM OVC100=



000
FTUS45 KCYS 220500 RRA
TAFLAR
TAF
KLAR 220549Z 2206/2306 20006KT P6SM BKN100
     FM221800 17010KT P6SM VCTS SCT060CB BKN100
     FM230300 17010KT P6SM OVC100=



000
FTUS45 KCYS 220500 RRA
TAFRWL
TAF
KRWL 220549Z 2206/2306 VRB03KT P6SM BKN100
     FM221800 20014G22KT P6SM VCTS SCT060CB BKN100
     FM230300 18007KT P6SM BKN070=



000
FTUS45 KCYS 220100 AAB
TAFRWL
TAF AMD
KRWL 220115Z 2201/2224 26015G25KT P6SM VCTS BKN100CB
     FM220300 VRB03KT P6SM BKN250
     FM221800 20014G22KT P6SM VCSH SCT100=



000
FTUS45 KCYS 220100 AAB
TAFRWL
TAF AMD
KRWL 220115Z 2201/2224 26015G25KT P6SM VCTS BKN100CB
     FM220300 VRB03KT P6SM BKN250
     FM221800 20014G22KT P6SM VCSH SCT100=



000
FTUS45 KCYS 220000 AAA
TAFRWL
TAF AMD
KRWL 220006Z 2200/2224 24015G25KT P6SM VCTS BKN100CB
      TEMPO 2200/2203 VRB25G35KT 2SM TSRA BR SCT020 BKN050CB
     FM220300 VRB03KT P6SM BKN250
     FM221800 20014G22KT P6SM VCSH SCT100=



000
FTUS45 KCYS 220000 AAA
TAFRWL
TAF AMD
KRWL 220006Z 2200/2224 24015G25KT P6SM VCTS BKN100CB
      TEMPO 2200/2203 VRB25G35KT 2SM TSRA BR SCT020 BKN050CB
     FM220300 VRB03KT P6SM BKN250
     FM221800 20014G22KT P6SM VCSH SCT100=



000
FTUS45 KCYS 212300 CCA
TAFRWL
TAF COR
KRWL 212334Z 2200/2224 23012G18KT P6SM VCTS BKN100CB
     FM220300 VRB03KT P6SM BKN250
     FM221800 20014G22KT P6SM VCSH SCT100=



000
FTUS45 KCYS 212300 CCA
TAFRWL
TAF COR
KRWL 212334Z 2200/2224 23012G18KT P6SM VCTS BKN100CB
     FM220300 VRB03KT P6SM BKN250
     FM221800 20014G22KT P6SM VCSH SCT100=



000
FTUS45 KCYS 212300
TAFLAR
TAF
KLAR 212332Z 2200/2224 22008KT P6SM BKN250
     FM221800 17010KT P6SM VCTS SCT100CB BKN250=



000
FTUS45 KCYS 212300
TAFRWL
TAF
KRWL 212332Z 2200/2224 23012G18KT P6SM BKN250
     FM220300 VRB03KT P6SM BKN250
     FM221800 20014G22KT P6SM VCSH SCT100=



000
FTUS45 KCYS 212300
TAFLAR
TAF
KLAR 212332Z 2200/2224 22008KT P6SM BKN250
     FM221800 17010KT P6SM VCTS SCT100CB BKN250=



000
FTUS45 KCYS 212300
TAFCYS
TAF
KCYS 212332Z 2200/2224 24006KT P6SM VCTS BKN100CB
     FM220300 24005KT P6SM BKN250
     FM221800 17010KT P6SM VCTS SCT100CB BKN250=



000
FTUS45 KCYS 212300
TAFCYS
TAF
KCYS 212332Z 2200/2224 24006KT P6SM VCTS BKN100CB
     FM220300 24005KT P6SM BKN250
     FM221800 17010KT P6SM VCTS SCT100CB BKN250=



000
FTUS45 KCYS 212300
TAFRWL
TAF
KRWL 212332Z 2200/2224 23012G18KT P6SM BKN250
     FM220300 VRB03KT P6SM BKN250
     FM221800 20014G22KT P6SM VCSH SCT100=



000
FTUS45 KCYS 211800 CCA
TAFCYS
TAF COR
KCYS 211809Z 2118/2218 28010KT P6SM SCT250
     FM212100 23008KT P6SM VCTS SCT050CB SCT100
     FM220200 22009KT P6SM BKN250=



000
FTUS45 KCYS 211800 CCA
TAFCYS
TAF COR
KCYS 211809Z 2118/2218 28010KT P6SM SCT250
     FM212100 23008KT P6SM VCTS SCT050CB SCT100
     FM220200 22009KT P6SM BKN250=



000
FTUS45 KCYS 211700
TAFLAR
TAF
KLAR 211720Z 2118/2218 25012G18KT P6SM SCT200
     FM220200 23009KT P6SM BKN200=



000
FTUS45 KCYS 211700
TAFLAR
TAF
KLAR 211720Z 2118/2218 25012G18KT P6SM SCT200
     FM220200 23009KT P6SM BKN200=



000
FTUS45 KCYS 211700
TAFRWL
TAF
KRWL 211720Z 2118/2218 23014G24KT P6SM SCT080
     FM220200 26007KT P6SM BKN150=



000
FTUS45 KCYS 211700
TAFRWL
TAF
KRWL 211720Z 2118/2218 23014G24KT P6SM SCT080
     FM220200 26007KT P6SM BKN150=



000
FTUS45 KCYS 211700
TAFCYS
TAF
KCYS 211720Z 2118/2218 31010G16KT P6SM SCT250
     FM212100 23008KT P6SM VCTS SCT050CB SCT100
     FM220200 22009KT P6SM BKN250=



000
FTUS45 KCYS 211700
TAFCYS
TAF
KCYS 211720Z 2118/2218 31010G16KT P6SM SCT250
     FM212100 23008KT P6SM VCTS SCT050CB SCT100
     FM220200 22009KT P6SM BKN250=



000
FTUS45 KCYS 211100
TAFLAR
TAF
KLAR 211134Z 2112/2212 25008KT P6SM BKN150
     FM211800 25012G18KT P6SM SCT200
     FM220200 23009KT P6SM BKN200=



000
FTUS45 KCYS 211100
TAFRWL
TAF
KRWL 211134Z 2112/2212 24008KT P6SM BKN150
     FM211700 23014G24KT P6SM SCT080
     FM220200 26007KT P6SM BKN150=



000
FTUS45 KCYS 211100
TAFCYS
TAF
KCYS 211134Z 2112/2212 28007KT P6SM SCT150
     FM211600 29010G16KT P6SM SCT250
     FM212100 23008KT P6SM VCSH SCT100
     FM220200 22009KT P6SM BKN250=



000
FTUS45 KCYS 211100
TAFLAR
TAF
KLAR 211134Z 2112/2212 25008KT P6SM BKN150
     FM211800 25012G18KT P6SM SCT200
     FM220200 23009KT P6SM BKN200=



000
FTUS45 KCYS 211100
TAFCYS
TAF
KCYS 211134Z 2112/2212 28007KT P6SM SCT150
     FM211600 29010G16KT P6SM SCT250
     FM212100 23008KT P6SM VCSH SCT100
     FM220200 22009KT P6SM BKN250=



000
FTUS45 KCYS 211100
TAFRWL
TAF
KRWL 211134Z 2112/2212 24008KT P6SM BKN150
     FM211700 23014G24KT P6SM SCT080
     FM220200 26007KT P6SM BKN150=



000
FTUS45 KCYS 210500
TAFCYS
TAF
KCYS 210520Z 2106/2206 29007KT P6SM SCT150
     FM211600 29009G16KT P6SM SCT250
     FM220000 22009KT P6SM BKN250=



000
FTUS45 KCYS 210500
TAFRWL
TAF
KRWL 210520Z 2106/2206 24008KT P6SM BKN150
     FM211700 23015G22KT P6SM SCT080 SCT200
     FM220200 26010KT P6SM BKN150=



000
FTUS45 KCYS 210500
TAFLAR
TAF
KLAR 210520Z 2106/2206 25008KT P6SM BKN150
     FM211800 26011G18KT P6SM SCT200
     FM220200 23009KT P6SM BKN200=



000
FTUS45 KCYS 210500
TAFCYS
TAF
KCYS 210520Z 2106/2206 29007KT P6SM SCT150
     FM211600 29009G16KT P6SM SCT250
     FM220000 22009KT P6SM BKN250=



000
FTUS45 KCYS 210500
TAFRWL
TAF
KRWL 210520Z 2106/2206 24008KT P6SM BKN150
     FM211700 23015G22KT P6SM SCT080 SCT200
     FM220200 26010KT P6SM BKN150=



000
FTUS45 KCYS 210500
TAFLAR
TAF
KLAR 210520Z 2106/2206 25008KT P6SM BKN150
     FM211800 26011G18KT P6SM SCT200
     FM220200 23009KT P6SM BKN200=



000
FTUS45 KCYS 202300
TAFLAR
TAF
KLAR 202338Z 2100/2124 27011KT P6SM SCT050 BKN080
     FM210200 25008KT P6SM BKN150
     FM211800 26011G18KT P6SM SCT200=



000
FTUS45 KCYS 202300
TAFRWL
TAF
KRWL 202338Z 2100/2124 24014KT P6SM VCTS SCT050CB BKN080
      TEMPO 2100/2102 24015G35KT TSRA BKN050CB
     FM210200 24008KT P6SM BKN150
     FM211700 23015G22KT P6SM SCT200=



000
FTUS45 KCYS 202300
TAFLAR
TAF
KLAR 202338Z 2100/2124 27011KT P6SM SCT050 BKN080
     FM210200 25008KT P6SM BKN150
     FM211800 26011G18KT P6SM SCT200=



000
FTUS45 KCYS 202300
TAFCYS
TAF
KCYS 202338Z 2100/2124 30012G21KT P6SM VCSH SCT050 BKN080
     FM210200 29007KT P6SM SCT150
     FM211600 29009G16KT P6SM SCT250=



000
FTUS45 KCYS 202300
TAFCYS
TAF
KCYS 202338Z 2100/2124 30012G21KT P6SM VCSH SCT050 BKN080
     FM210200 29007KT P6SM SCT150
     FM211600 29009G16KT P6SM SCT250=



000
FTUS45 KCYS 202100 AAA
TAFRWL
TAF AMD
KRWL 202156Z 2022/2118 24014G24KT P6SM VCTS SCT050CB BKN080
      TEMPO 2022/2024 24020G40KT TSRA BKN050CB
     FM210200 24008KT P6SM BKN150=



000
FTUS45 KCYS 202100 AAA
TAFRWL
TAF AMD
KRWL 202156Z 2022/2118 24014G24KT P6SM VCTS SCT050CB BKN080
      TEMPO 2022/2024 24020G40KT TSRA BKN050CB
     FM210200 24008KT P6SM BKN150=



000
FTUS45 KCYS 202100 AAA
TAFLAR
TAF AMD
KLAR 202155Z 2022/2118 27011KT P6SM VCTS SCT050CB BKN080
      TEMPO 2022/2023 23020G35KT -TSRA BKN070CB
     FM210200 25008KT P6SM BKN150=



000
FTUS45 KCYS 202100 AAA
TAFLAR
TAF AMD
KLAR 202155Z 2022/2118 27011KT P6SM VCTS SCT050CB BKN080
      TEMPO 2022/2023 23020G35KT -TSRA BKN070CB
     FM210200 25008KT P6SM BKN150=



000
FTUS45 KCYS 201700 CCA
TAFCYS
TAF COR
KCYS 201727Z 2018/2118 29015G25KT P6SM BKN080
     FM202000 30010G18KT P6SM VCTS SCT050CB BKN080
     FM210200 29007KT P6SM SCT150=



000
FTUS45 KCYS 201700 CCA
TAFCYS
TAF COR
KCYS 201727Z 2018/2118 29015G25KT P6SM BKN080
     FM202000 30010G18KT P6SM VCTS SCT050CB BKN080
     FM210200 29007KT P6SM SCT150=



000
FTUS45 KCYS 201700
TAFCYS
TAF
KCYS 201720Z 2018/2118 29012KT P6SM BKN080
     FM202000 30010G18KT P6SM VCTS SCT050CB BKN080
     FM210200 29007KT P6SM SCT150=



000
FTUS45 KCYS 201700
TAFCYS
TAF
KCYS 201720Z 2018/2118 29012KT P6SM BKN080
     FM202000 30010G18KT P6SM VCTS SCT050CB BKN080
     FM210200 29007KT P6SM SCT150=



000
FTUS45 KCYS 201700
TAFLAR
TAF
KLAR 201720Z 2018/2118 26012G20KT P6SM SCT070 OVC100
     FM202000 27011KT P6SM VCTS SCT050CB BKN080
     FM210200 25008KT P6SM BKN150=



000
FTUS45 KCYS 201700
TAFRWL
TAF
KRWL 201720Z 2018/2118 24014G22KT P6SM OVC050
     FM201900 24014G24KT P6SM VCTS SCT050CB BKN080
     FM210200 24008KT P6SM BKN150=



000
FTUS45 KCYS 201500 AAA
TAFRWL
TAF AMD
KRWL 201540Z 2016/2112 25012KT P6SM BKN015 OVC035
     FM201700 24014G22KT P6SM VCSH SCT015 OVC050
     FM201900 24014G24KT P6SM VCTS SCT050CB BKN080
     FM210200 24008KT P6SM BKN150=



000
FTUS45 KCYS 201500 AAA
TAFRWL
TAF AMD
KRWL 201540Z 2016/2112 25012KT P6SM BKN015 OVC035
     FM201700 24014G22KT P6SM VCSH SCT015 OVC050
     FM201900 24014G24KT P6SM VCTS SCT050CB BKN080
     FM210200 24008KT P6SM BKN150=



000
FTUS45 KCYS 201100
TAFLAR
TAF
KLAR 201127Z 2012/2112 14005KT P6SM SCT070 OVC100
     FM201400 24007KT P6SM SCT070 OVC100
     FM202000 27011KT P6SM VCTS SCT050CB BKN080
     FM210200 25008KT P6SM BKN150=



000
FTUS45 KCYS 201100
TAFRWL
TAF
KRWL 201127Z 2012/2112 21009KT P6SM VCSH SCT025 OVC035
     FM201500 24014G22KT P6SM OVC050
     FM201900 24014G24KT P6SM VCTS SCT050CB BKN080
     FM210200 24008KT P6SM BKN150=



000
FTUS45 KCYS 201100
TAFLAR
TAF
KLAR 201127Z 2012/2112 14005KT P6SM SCT070 OVC100
     FM201400 24007KT P6SM SCT070 OVC100
     FM202000 27011KT P6SM VCTS SCT050CB BKN080
     FM210200 25008KT P6SM BKN150=



000
FTUS45 KCYS 201100
TAFRWL
TAF
KRWL 201127Z 2012/2112 21009KT P6SM VCSH SCT025 OVC035
     FM201500 24014G22KT P6SM OVC050
     FM201900 24014G24KT P6SM VCTS SCT050CB BKN080
     FM210200 24008KT P6SM BKN150=



000
FTUS45 KCYS 201100
TAFCYS
TAF
KCYS 201127Z 2012/2112 28007KT P6SM BKN080
     FM201900 30010KT P6SM VCTS SCT050CB BKN080
     FM210200 27007KT P6SM SCT150=



000
FTUS45 KCYS 201000 AAA
TAFRWL
TAF AMD
KRWL 201003Z 2010/2106 21009KT P6SM VCSH SCT025 OVC035
      TEMPO 2010/2013 -SHRA BKN025
     FM201500 24015G20KT P6SM SCT050
     FM210200 24008KT P6SM VCSH BKN050=



000
FTUS45 KCYS 201000 AAA
TAFRWL
TAF AMD
KRWL 201003Z 2010/2106 21009KT P6SM VCSH SCT025 OVC035
      TEMPO 2010/2013 -SHRA BKN025
     FM201500 24015G20KT P6SM SCT050
     FM210200 24008KT P6SM VCSH BKN050=



000
FTUS45 KCYS 200500
TAFRWL
TAF
KRWL 200540Z 2006/2106 24012KT P6SM VCSH SCT020 OVC035
     FM201500 24015G20KT P6SM SCT050
     FM210200 24008KT P6SM VCSH BKN050=



000
FTUS45 KCYS 200500
TAFRWL
TAF
KRWL 200540Z 2006/2106 24012KT P6SM VCSH SCT020 OVC035
     FM201500 24015G20KT P6SM SCT050
     FM210200 24008KT P6SM VCSH BKN050=



000
FTUS45 KCYS 200500
TAFCYS
TAF
KCYS 200540Z 2006/2106 30005KT P6SM BKN080
     FM200900 28012KT P6SM VCSH BKN080
     FM210200 27007KT P6SM BKN080=



000
FTUS45 KCYS 200500
TAFLAR
TAF
KLAR 200540Z 2006/2106 20005KT P6SM BKN100
     FM200800 23010KT P6SM VCSH SCT050 OVC100
     FM210200 25008KT P6SM BKN100=



000
FTUS45 KCYS 200500
TAFLAR
TAF
KLAR 200540Z 2006/2106 20005KT P6SM BKN100
     FM200800 23010KT P6SM VCSH SCT050 OVC100
     FM210200 25008KT P6SM BKN100=



000
FTUS45 KCYS 200500
TAFCYS
TAF
KCYS 200540Z 2006/2106 30005KT P6SM BKN080
     FM200900 28012KT P6SM VCSH BKN080
     FM210200 27007KT P6SM BKN080=



000
FTUS45 KCYS 192300
TAFCYS
TAF
KCYS 192328Z 2000/2024 33010G18KT P6SM VCSH FEW050 BKN080
     FM200400 25005KT P6SM BKN080
     FM200900 27012KT P6SM VCSH BKN080=



000
FTUS45 KCYS 192300
TAFLAR
TAF
KLAR 192328Z 2000/2024 15010KT P6SM VCSH FEW050 BKN100
     FM200400 20005KT P6SM BKN100
     FM200800 23010KT P6SM VCSH SCT050 OVC100=



000
FTUS45 KCYS 192300
TAFRWL
TAF
KRWL 192328Z 2000/2024 20010G18KT P6SM VCSH FEW050 BKN080
     FM200600 24012KT P6SM VCSH SCT020 OVC035
     FM201500 24015G20KT P6SM SCT050=



000
FTUS45 KCYS 192300
TAFCYS
TAF
KCYS 192328Z 2000/2024 33010G18KT P6SM VCSH FEW050 BKN080
     FM200400 25005KT P6SM BKN080
     FM200900 27012KT P6SM VCSH BKN080=



000
FTUS45 KCYS 192300
TAFLAR
TAF
KLAR 192328Z 2000/2024 15010KT P6SM VCSH FEW050 BKN100
     FM200400 20005KT P6SM BKN100
     FM200800 23010KT P6SM VCSH SCT050 OVC100=



000
FTUS45 KCYS 192300
TAFRWL
TAF
KRWL 192328Z 2000/2024 20010G18KT P6SM VCSH FEW050 BKN080
     FM200600 24012KT P6SM VCSH SCT020 OVC035
     FM201500 24015G20KT P6SM SCT050=



000
FTUS45 KCYS 192100 AAA
TAFRWL
TAF AMD
KRWL 192126Z 1921/2018 23015G23KT P6SM FEW060 OVC150
     FM200200 19008KT P6SM -SHRA OVC080
     FM200600 23012KT P6SM -SHRA SCT020 OVC035=



000
FTUS45 KCYS 192100 AAA
TAFRWL
TAF AMD
KRWL 192126Z 1921/2018 23015G23KT P6SM FEW060 OVC150
     FM200200 19008KT P6SM -SHRA OVC080
     FM200600 23012KT P6SM -SHRA SCT020 OVC035=



000
FTUS45 KCYS 192100 AAA
TAFCYS
TAF AMD
KCYS 192125Z 1921/2018 02011KT P6SM VCTS FEW050CB BKN300
      TEMPO 1922/2001 VRB20G35KT -TSRA BKN050CB
     FM200400 28008KT P6SM BKN090=



000
FTUS45 KCYS 192100 AAA
TAFCYS
TAF AMD
KCYS 192125Z 1921/2018 02011KT P6SM VCTS FEW050CB BKN300
      TEMPO 1922/2001 VRB20G35KT -TSRA BKN050CB
     FM200400 28008KT P6SM BKN090=



000
FTUS45 KCYS 192100 AAA
TAFLAR
TAF AMD
KLAR 192125Z 1921/2018 21009KT P6SM VCTS SCT070CB OVC110
     FM200300 17008KT P6SM SCT080
     FM200900 22008KT P6SM -SHRA SCT040 OVC070=



000
FTUS45 KCYS 192100 AAA
TAFLAR
TAF AMD
KLAR 192125Z 1921/2018 21009KT P6SM VCTS SCT070CB OVC110
     FM200300 17008KT P6SM SCT080
     FM200900 22008KT P6SM -SHRA SCT040 OVC070=



000
FTUS45 KCYS 191800 CCA
TAFRWL
TAF COR
KRWL 191827Z 1918/2018 24018G28KT P6SM OVC150
     FM192100 18014KT P6SM VCTS SCT060CB OVC100
     FM200200 19008KT P6SM -SHRA OVC080
     FM200600 23012KT P6SM -SHRA SCT020 OVC035=



000
FTUS45 KCYS 191800 CCA
TAFRWL
TAF COR
KRWL 191827Z 1918/2018 24018G28KT P6SM OVC150
     FM192100 18014KT P6SM VCTS SCT060CB OVC100
     FM200200 19008KT P6SM -SHRA OVC080
     FM200600 23012KT P6SM -SHRA SCT020 OVC035=



000
FTUS45 KCYS 191800 CCA
TAFCYS
TAF COR
KCYS 191826Z 1918/2018 31011G17KT P6SM FEW080 BKN300
     FM192100 18012KT P6SM SCT080 BKN300
      TEMPO 1921/1924 VRB20G35KT 4SM -TSRA BKN050CB
     FM200400 28008KT P6SM BKN090=



000
FTUS45 KCYS 191800 CCA
TAFCYS
TAF COR
KCYS 191826Z 1918/2018 31011G17KT P6SM FEW080 BKN300
     FM192100 18012KT P6SM SCT080 BKN300
      TEMPO 1921/1924 VRB20G35KT 4SM -TSRA BKN050CB
     FM200400 28008KT P6SM BKN090=



000
FTUS45 KCYS 191700
TAFLAR
TAF
KLAR 191723Z 1918/2018 24014G20KT P6SM FEW080 OVC250
     FM192000 15009KT P6SM VCTS SCT070CB OVC110
     FM200300 17008KT P6SM SCT080
     FM200900 22008KT P6SM -SHRA SCT040 OVC070=



000
FTUS45 KCYS 191700
TAFRWL
TAF
KRWL 191723Z 1918/2018 22014G24KT P6SM OVC150
     FM192100 18014KT P6SM VCTS SCT060CB OVC100
     FM200200 19008KT P6SM -SHRA OVC080
     FM200600 23012KT P6SM -SHRA SCT020 OVC035=



000
FTUS45 KCYS 191700
TAFRWL
TAF
KRWL 191723Z 1918/2018 22014G24KT P6SM OVC150
     FM192100 18014KT P6SM VCTS SCT060CB OVC100
     FM200200 19008KT P6SM -SHRA OVC080
     FM200600 23012KT P6SM -SHRA SCT020 OVC035=



000
FTUS45 KCYS 191700
TAFCYS
TAF
KCYS 191723Z 1918/2018 27013G20KT P6SM FEW080 BKN300
     FM192000 18012KT P6SM SCT080 BKN300
      TEMPO 1921/1924 VRB20G35KT 4SM -TSRA BKN050CB
     FM200400 28008KT P6SM BKN090=



000
FTUS45 KCYS 191700
TAFLAR
TAF
KLAR 191723Z 1918/2018 24014G20KT P6SM FEW080 OVC250
     FM192000 15009KT P6SM VCTS SCT070CB OVC110
     FM200300 17008KT P6SM SCT080
     FM200900 22008KT P6SM -SHRA SCT040 OVC070=



000
FTUS45 KCYS 191700
TAFCYS
TAF
KCYS 191723Z 1918/2018 27013G20KT P6SM FEW080 BKN300
     FM192000 18012KT P6SM SCT080 BKN300
      TEMPO 1921/1924 VRB20G35KT 4SM -TSRA BKN050CB
     FM200400 28008KT P6SM BKN090=



000
FTUS45 KCYS 191100
TAFCYS
TAF
KCYS 191120Z 1912/2012 25007KT P6SM SKC
     FM191600 23010G20KT P6SM SCT080
     FM192000 20013G23KT P6SM BKN080
      TEMPO 1920/1924 VRB20G35KT 4SM -TSRA BKN035CB
     FM200200 27010KT P6SM BKN080=



000
FTUS45 KCYS 191100
TAFRWL
TAF
KRWL 191120Z 1912/2012 20008KT P6SM SCT120
     FM191600 25008KT P6SM SCT100
     FM192000 17013G23KT P6SM VCTS BKN060CB
     FM200200 19008KT P6SM SKC=



000
FTUS45 KCYS 191100
TAFLAR
TAF
KLAR 191120Z 1912/2012 17009KT P6SM SKC
     FM191700 18011G20KT P6SM SCT080
     FM200700 17008KT P6SM SCT080
     FM200900 23008KT P6SM SCT080=



000
FTUS45 KCYS 191100
TAFRWL
TAF
KRWL 191120Z 1912/2012 20008KT P6SM SCT120
     FM191600 25008KT P6SM SCT100
     FM192000 17013G23KT P6SM VCTS BKN060CB
     FM200200 19008KT P6SM SKC=



000
FTUS45 KCYS 191100
TAFLAR
TAF
KLAR 191120Z 1912/2012 17009KT P6SM SKC
     FM191700 18011G20KT P6SM SCT080
     FM200700 17008KT P6SM SCT080
     FM200900 23008KT P6SM SCT080=



000
FTUS45 KCYS 191100
TAFCYS
TAF
KCYS 191120Z 1912/2012 25007KT P6SM SKC
     FM191600 23010G20KT P6SM SCT080
     FM192000 20013G23KT P6SM BKN080
      TEMPO 1920/1924 VRB20G35KT 4SM -TSRA BKN035CB
     FM200200 27010KT P6SM BKN080=



    US Dept of Commerce
    National Oceanic and Atmospheric Administration
    National Weather Service
    1325 East West Highway
    Silver Spring, MD 20910
    Page Author: NWS Internet Services Team
Disclaimer
Information Quality
Credits
Glossary
Privacy Policy
Freedom of Information Act (FOIA)
About Us
Career Opportunities